Time;durP1;ratioP1;P1;durP2;ratioP2;P2;SDS_P1;SDS_P2;PMS_P1;PMS_P2;Temp;Humidity;BMP_temperature;BMP_pressure;BME280_temperature;BME280_humidity;BME280_pressure;Samples;Min_cycle;Max_cycle;Signal;HPM_P1;HPM_P2
2023/08/15 00:02:22;;;;;;;;;6.00;5.00;;;;;22.55;68.10;100887.06;5039731;28;45414;-71
2023/08/15 00:04:49;;;;;;;;;5.33;4.00;;;;;22.43;69.10;100884.00;5040942;28;45437;-71
2023/08/15 00:07:14;;;;;;;;;6.00;5.00;;;;;22.55;69.51;100908.41;5056224;28;45420;-71
2023/08/15 00:09:40;;;;;;;;;7.00;4.67;;;;;22.50;69.61;100899.75;5039799;28;45501;-71
2023/08/15 00:12:06;;;;;;;;;5.00;5.00;;;;;22.49;69.40;100898.88;5039340;28;46351;-72
2023/08/15 00:14:36;;;;;;;;;5.67;4.33;;;;;22.47;69.35;100887.44;5055260;28;45493;-72
2023/08/15 00:17:02;;;;;;;;;3.67;3.00;;;;;22.40;70.37;100889.50;5025811;28;45570;-72
2023/08/15 00:19:27;;;;;;;;;7.00;5.33;;;;;22.29;71.05;100889.09;5039487;28;45492;-71
2023/08/15 00:21:53;;;;;;;;;3.67;3.67;;;;;22.33;70.25;100877.38;5039232;28;46154;-71
2023/08/15 00:24:18;;;;;;;;;7.33;4.00;;;;;22.32;69.90;100851.59;5040349;28;45429;-72
2023/08/15 00:26:44;;;;;;;;;3.67;3.00;;;;;22.61;70.42;100889.44;5040140;28;45382;-72
2023/08/15 00:29:09;;;;;;;;;5.33;4.33;;;;;22.63;70.72;100899.09;5039989;28;45586;-72
2023/08/15 00:31:35;;;;;;;;;5.67;4.33;;;;;22.61;70.68;100892.09;5039157;28;46032;-71
2023/08/15 00:34:00;;;;;;;;;6.33;4.00;;;;;22.67;70.53;100904.31;5038199;28;45498;-72
2023/08/15 00:36:26;;;;;;;;;4.33;4.33;;;;;22.54;69.93;100890.66;5038886;28;45543;-71
2023/08/15 00:38:51;;;;;;;;;10.67;4.67;;;;;22.64;70.56;100905.34;5038675;28;45438;-71
2023/08/15 00:41:18;;;;;;;;;6.00;4.00;;;;;22.53;69.91;100883.59;5038021;28;45707;-70
2023/08/15 00:43:43;;;;;;;;;4.25;3.75;;;;;22.50;69.33;100878.41;5038837;28;45497;-72
2023/08/15 00:46:10;;;;;;;;;6.33;4.00;;;;;22.57;70.34;100894.06;5037776;28;45625;-72
2023/08/15 00:48:36;;;;;;;;;6.67;5.33;;;;;22.65;70.29;100901.72;5038165;28;45512;-71
2023/08/15 00:51:02;;;;;;;;;7.33;4.67;;;;;22.42;70.11;100881.41;5038184;28;45619;-71
2023/08/15 00:53:32;;;;;;;;;7.00;4.67;;;;;22.60;69.64;100901.94;5038790;28;46759;-71
2023/08/15 00:55:59;;;;;;;;;5.00;4.50;;;;;22.61;69.68;100898.34;5039321;28;45419;-71
2023/08/15 00:58:25;;;;;;;;;6.33;5.00;;;;;22.73;68.97;100909.38;5036949;28;45649;-71
2023/08/15 01:00:51;;;;;;;;;6.00;4.33;;;;;22.63;68.78;100895.56;5037624;28;45738;-70
2023/08/15 01:03:18;;;;;;;;;5.00;4.33;;;;;22.73;68.73;100906.69;5038700;28;45301;-70
2023/08/15 01:05:44;;;;;;;;;3.00;3.00;;;;;22.74;68.89;100903.13;5039190;28;45647;-71
2023/08/15 01:08:10;;;;;;;;;6.33;5.00;;;;;22.74;68.11;100898.63;5040418;28;45366;-71
2023/08/15 01:10:39;;;;;;;;;3.00;3.00;;;;;22.77;67.80;100893.13;5040040;28;45457;-71
2023/08/15 01:13:49;;;;;;;;;6.25;3.25;;;;;22.85;67.97;100909.69;5038718;28;45539;-71
2023/08/15 01:16:23;;;;;;;;;6.33;5.33;;;;;22.75;67.48;100907.50;5037650;28;45538;-71
2023/08/15 01:19:00;;;;;;;;;5.67;5.33;;;;;22.71;68.75;100909.47;5036912;28;45319;-71
2023/08/15 01:21:32;;;;;;;;;8.67;5.67;;;;;22.73;67.29;100907.59;5038261;28;46658;-71
2023/08/15 01:23:58;;;;;;;;;4.67;4.00;;;;;22.74;66.62;100911.13;5038071;28;45495;-71
2023/08/15 01:26:24;;;;;;;;;7.00;4.00;;;;;22.70;66.73;100909.53;5039578;28;45390;-73
2023/08/15 01:28:49;;;;;;;;;5.00;5.00;;;;;22.29;67.38;100867.75;5038438;28;45453;-70
2023/08/15 01:31:31;;;;;;;;;6.00;4.00;;;;;22.54;67.17;100904.91;5038804;28;45614;-70
2023/08/15 01:34:12;;;;;;;;;6.67;4.67;;;;;22.44;65.96;100879.53;5038134;28;45321;-71
2023/08/15 01:36:49;;;;;;;;;6.00;6.00;;;;;22.61;68.65;100924.13;5036614;28;45283;-70
2023/08/15 01:39:22;;;;;;;;;6.00;6.00;;;;;22.50;69.85;100938.00;5038410;28;45501;-70
2023/08/15 01:41:55;;;;;;;;;8.33;6.33;;;;;22.18;69.86;100878.00;5037867;28;45282;-71
2023/08/15 01:44:22;;;;;;;;;6.67;5.67;;;;;22.51;70.26;100941.50;5037964;28;45544;-71
2023/08/15 01:46:48;;;;;;;;;4.67;4.67;;;;;22.51;71.11;100939.72;5037256;28;45708;-71
2023/08/15 01:49:14;;;;;;;;;6.00;6.00;;;;;22.45;71.40;100940.00;5038471;28;45458;-71
2023/08/15 01:51:40;;;;;;;;;5.33;5.33;;;;;22.17;71.44;100906.47;5037949;28;45450;-71
2023/08/15 01:54:05;;;;;;;;;5.00;5.00;;;;;22.42;71.66;100945.44;5038162;28;45568;-71
2023/08/15 01:56:34;;;;;;;;;6.67;6.67;;;;;22.35;71.97;100935.97;5039447;28;45747;-71
2023/08/15 01:59:00;;;;;;;;;9.33;5.67;;;;;22.14;72.76;100908.41;5038370;28;45513;-70
2023/08/15 02:01:26;;;;;;;;;6.00;4.67;;;;;22.27;72.27;100935.47;5036616;28;46132;-70
2023/08/15 02:03:51;;;;;;;;;6.33;5.00;;;;;22.43;73.22;100960.53;5037625;28;45379;-70
2023/08/15 02:06:17;;;;;;;;;6.00;6.00;;;;;22.39;72.32;100950.94;5038031;28;45284;-70
2023/08/15 02:08:43;;;;;;;;;6.00;4.67;;;;;22.55;70.94;100959.13;5038182;28;45482;-70
2023/08/15 02:11:08;;;;;;;;;5.67;3.33;;;;;22.61;69.47;100957.06;5038130;28;46020;-70
2023/08/15 02:13:34;;;;;;;;;6.00;5.00;;;;;22.59;69.80;100952.69;5037961;28;45467;-71
2023/08/15 02:16:00;;;;;;;;;7.00;5.00;;;;;22.61;70.06;100948.16;5037634;28;45582;-73
2023/08/15 02:18:28;;;;;;;;;5.67;5.33;;;;;22.64;69.05;100942.72;5036164;28;45542;-71
2023/08/15 02:20:54;;;;;;;;;4.25;4.00;;;;;22.70;68.43;100953.09;5037405;28;46095;-71
2023/08/15 02:23:24;;;;;;;;;8.00;3.67;;;;;22.65;68.61;100955.97;5035475;28;45501;-71
2023/08/15 02:25:50;;;;;;;;;3.00;3.00;;;;;22.65;68.29;100963.97;5037238;28;45552;-71
2023/08/15 02:28:16;;;;;;;;;6.67;4.67;;;;;22.67;67.33;100974.59;5039147;28;45381;-71
2023/08/15 02:30:42;;;;;;;;;5.33;4.00;;;;;22.44;66.93;100923.09;5037553;28;45503;-71
2023/08/15 02:33:08;;;;;;;;;3.33;3.33;;;;;22.75;66.39;100955.56;5037489;28;45342;-70
2023/08/15 02:35:38;;;;;;;;;3.50;3.00;;;;;22.67;66.99;100955.91;5037603;28;45460;-71
2023/08/15 02:38:04;;;;;;;;;3.33;3.00;;;;;22.76;66.21;100951.97;5038347;28;45385;-71
2023/08/15 02:40:29;;;;;;;;;4.33;4.33;;;;;22.62;65.99;100936.56;5044753;28;46186;-71
2023/08/15 02:42:54;;;;;;;;;4.25;3.75;;;;;22.65;65.58;100931.94;5044643;28;45325;-71
2023/08/15 02:45:20;;;;;;;;;3.00;1.67;;;;;22.78;65.13;100955.41;5044959;28;44870;-70
2023/08/15 02:47:46;;;;;;;;;6.00;4.25;;;;;22.78;64.69;100936.72;5039140;28;45572;-69
2023/08/15 02:50:12;;;;;;;;;4.00;3.33;;;;;22.80;66.03;100940.19;5037668;28;45465;-70
2023/08/15 02:52:38;;;;;;;;;3.67;3.67;;;;;22.82;65.41;100943.66;5037667;28;45259;-71
2023/08/15 02:55:04;;;;;;;;;3.25;2.50;;;;;22.82;66.00;100947.19;5037729;28;45422;-70
2023/08/15 02:57:30;;;;;;;;;6.00;4.33;;;;;22.81;65.56;100941.94;5037467;28;45278;-71
2023/08/15 02:59:56;;;;;;;;;5.00;4.00;;;;;22.73;65.40;100944.97;5038403;28;46385;-71
2023/08/15 03:02:22;;;;;;;;;4.00;2.25;;;;;22.80;63.92;100953.53;5038249;28;45721;-71
2023/08/15 03:04:48;;;;;;;;;3.75;3.75;;;;;22.77;63.88;100940.34;5036183;28;45832;-71
2023/08/15 03:07:13;;;;;;;;;4.33;3.00;;;;;22.67;64.66;100923.88;5037342;28;45366;-71
2023/08/15 03:09:39;;;;;;;;;4.75;4.00;;;;;22.81;64.02;100944.63;5036850;28;46266;-71
2023/08/15 03:12:05;;;;;;;;;7.00;3.25;;;;;22.73;62.86;100928.06;5036750;28;46030;-70
2023/08/15 03:14:30;;;;;;;;;4.67;3.00;;;;;22.74;63.07;100933.34;5036540;28;45469;-72
2023/08/15 03:16:56;;;;;;;;;4.00;3.67;;;;;22.70;62.60;100931.75;5037094;28;45579;-70
2023/08/15 03:19:21;;;;;;;;;3.00;2.00;;;;;22.76;62.77;100936.81;5037152;28;46239;-71
2023/08/15 03:21:47;;;;;;;;;3.00;3.00;;;;;22.79;62.19;100930.47;5037446;28;45433;-71
2023/08/15 03:24:13;;;;;;;;;4.33;4.00;;;;;22.81;62.44;100941.94;5037442;28;45445;-71
2023/08/15 03:26:39;;;;;;;;;3.00;2.75;;;;;22.81;61.96;100941.94;5035756;28;45694;-71
2023/08/15 03:29:04;;;;;;;;;3.00;3.00;;;;;22.83;62.33;100959.63;5037631;28;45383;-71
2023/08/15 03:31:30;;;;;;;;;2.00;2.00;;;;;22.71;62.04;100936.16;5036314;28;45317;-70
2023/08/15 03:33:56;;;;;;;;;4.00;3.00;;;;;22.59;61.31;100912.66;5036441;28;45454;-71
2023/08/15 03:36:22;;;;;;;;;3.00;3.00;;;;;22.84;61.81;100969.34;5037084;28;45201;-70
2023/08/15 03:38:47;;;;;;;;;6.00;3.00;;;;;22.73;61.47;100962.78;5036335;28;45480;-70
2023/08/15 03:41:13;;;;;;;;;3.00;3.00;;;;;22.81;61.33;100972.19;5036409;28;45478;-71
2023/08/15 03:43:39;;;;;;;;;4.00;4.00;;;;;22.69;61.59;100970.06;5037779;28;45497;-70
2023/08/15 03:46:06;;;;;;;;;3.33;2.67;;;;;22.80;60.77;100997.16;5038078;28;45628;-70
2023/08/15 03:48:35;;;;;;;;;1.25;1.25;;;;;22.73;60.57;100985.03;5037316;28;46408;-70
2023/08/15 03:51:01;;;;;;;;;5.00;3.25;;;;;22.75;60.93;100990.28;5036299;28;45262;-70
2023/08/15 03:53:27;;;;;;;;;4.00;4.00;;;;;22.71;61.26;100999.34;5036578;28;45271;-73
2023/08/15 03:55:54;;;;;;;;;3.50;3.25;;;;;22.56;61.84;100991.09;5037758;28;45564;-72
2023/08/15 03:58:21;;;;;;;;;4.25;4.00;;;;;22.44;62.08;100994.28;5035973;28;46236;-71
2023/08/15 04:00:53;;;;;;;;;7.00;4.00;;;;;22.36;61.96;100983.97;5036061;28;45520;-72
2023/08/15 04:03:19;;;;;;;;;5.33;4.00;;;;;22.54;61.88;101018.78;5034810;28;45387;-70
2023/08/15 04:05:48;;;;;;;;;4.00;3.67;;;;;22.44;62.18;101032.50;5036319;28;45373;-70
2023/08/15 04:08:14;;;;;;;;;5.00;3.00;;;;;22.29;62.34;101009.16;5036020;28;46070;-69
2023/08/15 04:10:43;;;;;;;;;5.00;4.00;;;;;22.39;62.78;101041.66;5035680;28;45620;-72
2023/08/15 04:13:09;;;;;;;;;3.33;3.33;;;;;22.32;62.84;101027.72;5036254;28;45599;-70
2023/08/15 04:15:36;;;;;;;;;5.33;5.33;;;;;22.30;63.48;101026.91;5036190;28;45429;-69
2023/08/15 04:18:05;;;;;;;;;4.00;4.00;;;;;22.30;63.37;101037.56;5035898;28;45992;-70
2023/08/15 04:20:30;;;;;;;;;2.33;2.33;;;;;22.17;63.24;101034.53;5035801;28;45236;-69
2023/08/15 04:22:56;;;;;;;;;5.33;4.00;;;;;22.27;62.77;101053.72;5036600;28;45448;-69
2023/08/15 04:25:22;;;;;;;;;3.00;3.00;;;;;22.13;63.62;101046.25;5036300;28;45484;-68
2023/08/15 04:27:48;;;;;;;;;7.67;4.33;;;;;21.88;64.09;101027.72;5037290;28;45986;-71
2023/08/15 04:30:13;;;;;;;;;6.00;5.33;;;;;22.09;64.06;101047.34;5037331;28;45463;-70
2023/08/15 04:32:39;;;;;;;;;6.00;5.00;;;;;22.08;63.62;101039.38;5038357;28;45381;-70
2023/08/15 04:35:05;;;;;;;;;4.67;3.00;;;;;22.13;63.94;101045.38;5036218;28;45336;-71
2023/08/15 04:37:30;;;;;;;;;4.00;4.00;;;;;22.00;63.99;101019.22;5035537;28;45640;-72
2023/08/15 04:39:56;;;;;;;;;4.00;4.00;;;;;22.15;63.79;101046.19;5036868;28;45614;-72
2023/08/15 04:42:21;;;;;;;;;5.67;3.00;;;;;22.16;63.90;101046.16;5035882;28;45560;-71
2023/08/15 04:44:47;;;;;;;;;6.00;3.67;;;;;22.17;63.52;101047.88;5036097;28;45479;-71
2023/08/15 04:47:12;;;;;;;;;5.00;3.67;;;;;22.09;63.48;101030.44;5035823;28;47839;-72
2023/08/15 04:49:42;;;;;;;;;4.67;4.67;;;;;21.94;63.59;101027.47;5039527;28;45425;-72
2023/08/15 04:52:07;;;;;;;;;6.00;3.00;;;;;21.99;63.87;101049.47;5039447;28;45273;-71
2023/08/15 04:54:33;;;;;;;;;3.00;3.00;;;;;22.10;64.53;101050.84;5039689;28;45409;-70
2023/08/15 04:56:59;;;;;;;;;5.33;3.67;;;;;22.04;63.37;101025.28;5039206;28;45370;-70
2023/08/15 04:59:30;;;;;;;;;4.33;3.67;;;;;22.12;62.70;101043.66;5039875;28;45429;-72
2023/08/15 05:01:56;;;;;;;;;7.00;4.00;;;;;22.09;62.41;101043.78;5039196;28;45426;-70
2023/08/15 05:04:21;;;;;;;;;7.00;4.00;;;;;22.07;63.47;101062.53;5039269;28;45425;-69
2023/08/15 05:06:47;;;;;;;;;4.33;4.00;;;;;22.12;63.68;101062.34;5038636;28;45464;-69
2023/08/15 05:09:13;;;;;;;;;9.00;3.33;;;;;22.12;62.82;101063.19;5038776;28;45436;-69
2023/08/15 05:11:38;;;;;;;;;3.00;3.00;;;;;22.16;63.39;101067.47;5038649;28;45519;-68
2023/08/15 05:14:06;;;;;;;;;3.00;3.00;;;;;22.09;64.11;101066.00;5039601;28;45496;-69
2023/08/15 05:16:32;;;;;;;;;5.00;4.00;;;;;22.04;63.43;101049.28;5038640;28;45623;-69
2023/08/15 05:18:57;;;;;;;;;2.67;2.67;;;;;22.01;63.28;101036.94;5037311;28;45513;-69
2023/08/15 05:21:23;;;;;;;;;4.67;3.00;;;;;22.07;63.50;101050.97;5038190;28;45373;-69
2023/08/15 05:23:49;;;;;;;;;3.67;3.33;;;;;22.06;63.61;101050.09;5038424;28;45296;-68
2023/08/15 05:26:21;;;;;;;;;3.33;3.00;;;;;22.19;63.50;101061.16;5037880;28;45683;-68
2023/08/15 05:28:46;;;;;;;;;7.00;3.33;;;;;22.27;63.20;101072.41;5038097;28;45522;-68
2023/08/15 05:31:14;;;;;;;;;4.33;2.67;;;;;22.21;63.52;101070.00;5038580;28;45538;-68
2023/08/15 05:33:40;;;;;;;;;4.67;3.00;;;;;22.23;63.56;101073.44;5038314;28;45418;-68
2023/08/15 05:36:06;;;;;;;;;4.00;4.00;;;;;22.22;63.21;101066.38;5039115;28;46246;-68
2023/08/15 05:38:31;;;;;;;;;5.00;4.00;;;;;22.34;63.33;101089.03;5039795;28;45291;-68
2023/08/15 05:40:57;;;;;;;;;3.67;3.67;;;;;22.34;62.32;101076.53;5035016;28;45469;-69
2023/08/15 05:43:23;;;;;;;;;7.33;5.00;;;;;22.34;62.07;101065.00;5028602;28;45629;-70
2023/08/15 05:45:49;;;;;;;;;6.00;4.67;;;;;22.49;61.89;101076.84;5037859;28;46513;-68
2023/08/15 05:48:15;;;;;;;;;6.00;4.00;;;;;22.57;61.74;101085.41;5053392;28;45656;-69
2023/08/15 05:50:57;;;;;;;;;3.00;3.00;;;;;22.51;61.61;101066.97;5037848;28;45588;-68
2023/08/15 05:53:22;;;;;;;;;3.00;3.00;;;;;22.59;61.24;101075.50;5053799;28;45732;-68
2023/08/15 05:55:48;;;;;;;;;6.33;3.33;;;;;22.36;61.48;101025.78;5038233;28;45460;-68
2023/08/15 05:58:14;;;;;;;;;4.67;3.00;;;;;22.73;61.14;101091.81;5037811;28;45328;-68
2023/08/15 06:00:40;;;;;;;;;6.00;4.00;;;;;22.57;61.07;101066.72;5038228;28;45386;-69
2023/08/15 06:03:06;;;;;;;;;4.00;2.33;;;;;22.62;61.04;101064.72;5037806;28;45587;-69
2023/08/15 06:05:44;;;;;;;;;4.00;4.00;;;;;22.65;60.22;101062.75;5037775;28;45938;-68
2023/08/15 06:08:09;;;;;;;;;4.33;3.00;;;;;22.85;60.29;101091.28;5039694;28;45272;-68
2023/08/15 06:10:39;;;;;;;;;8.33;3.33;;;;;22.77;60.84;101089.88;5038937;28;45760;-68
2023/08/15 06:13:05;;;;;;;;;5.00;4.00;;;;;22.88;61.03;101121.47;5038182;28;45599;-69
2023/08/15 06:15:30;;;;;;;;;3.50;3.50;;;;;22.65;61.50;101099.28;5037743;28;46544;-69
2023/08/15 06:17:57;;;;;;;;;4.00;4.00;;;;;22.80;61.38;101129.78;5037404;28;45411;-67
2023/08/15 06:20:22;;;;;;;;;3.25;3.25;;;;;22.54;61.00;101074.84;5037633;28;46707;-69
2023/08/15 06:22:48;;;;;;;;;4.67;4.00;;;;;22.78;61.37;101123.63;5036519;28;45508;-69
2023/08/15 06:25:14;;;;;;;;;3.33;3.33;;;;;22.81;61.47;101135.06;5036955;28;46168;-71
2023/08/15 06:27:40;;;;;;;;;4.00;3.33;;;;;22.70;60.53;101120.44;5037557;28;45366;-71
2023/08/15 06:30:07;;;;;;;;;6.33;3.33;;;;;22.85;60.22;101139.34;5037362;28;45190;-69
2023/08/15 06:32:32;;;;;;;;;5.33;3.00;;;;;22.85;60.68;101149.16;5037972;28;45485;-70
2023/08/15 06:35:05;;;;;;;;;4.00;4.00;;;;;22.63;60.80;101117.16;5037316;28;45589;-71
2023/08/15 06:37:34;;;;;;;;;3.33;3.33;;;;;22.94;60.61;101161.25;5036955;28;45482;-70
2023/08/15 06:40:13;;;;;;;;;5.00;3.33;;;;;22.53;60.67;101081.13;5037642;28;45409;-71
2023/08/15 06:42:38;;;;;;;;;4.00;4.00;;;;;23.04;60.21;101170.63;5036903;28;45322;-70
2023/08/15 06:45:12;;;;;;;;;4.33;3.00;;;;;22.92;59.88;101142.66;5036069;28;46065;-70
2023/08/15 06:47:42;;;;;;;;;4.00;4.00;;;;;23.00;60.07;101156.56;5037723;28;45338;-72
2023/08/15 06:50:13;;;;;;;;;3.67;3.00;;;;;23.11;59.83;101182.78;5037357;28;45304;-70
2023/08/15 06:52:52;;;;;;;;;6.00;4.33;;;;;22.93;59.86;101152.38;5037323;28;45363;-69
2023/08/15 06:55:18;;;;;;;;;4.00;3.00;;;;;23.17;59.88;101185.22;5036812;28;46247;-71
2023/08/15 06:57:43;;;;;;;;;6.33;3.33;;;;;23.25;59.93;101192.88;5038392;28;45296;-71
2023/08/15 07:00:11;;;;;;;;;6.33;3.33;;;;;22.96;59.70;101128.19;5038140;28;45485;-69
2023/08/15 07:02:37;;;;;;;;;3.67;3.67;;;;;23.54;59.27;101196.06;5037058;28;45389;-70
2023/08/15 07:05:04;;;;;;;;;5.75;2.50;;;;;23.64;58.65;101192.06;5037216;28;46168;-69
2023/08/15 07:07:30;;;;;;;;;3.00;3.00;;;;;23.39;58.29;101137.00;5036651;28;45221;-71
2023/08/15 07:10:12;;;;;;;;;4.00;3.50;;;;;23.76;58.54;101186.19;5036374;28;45509;-70
2023/08/15 07:12:38;;;;;;;;;2.00;2.00;;;;;23.83;58.19;101192.13;5030918;28;45339;-70
2023/08/15 07:15:06;;;;;;;;;3.25;3.00;;;;;23.87;58.08;101188.34;5035597;28;46936;-71
2023/08/15 07:17:32;;;;;;;;;5.00;5.00;;;;;23.85;58.22;101192.94;5038052;28;45304;-71
2023/08/15 07:20:00;;;;;;;;;4.00;3.25;;;;;23.88;57.88;101198.13;5036090;28;45449;-71
2023/08/15 07:22:26;;;;;;;;;4.00;3.25;;;;;23.83;58.06;101173.41;5037886;28;45281;-70
2023/08/15 07:24:51;;;;;;;;;4.25;3.75;;;;;23.97;57.44;101200.38;5037401;28;46094;-69
2023/08/15 07:27:17;;;;;;;;;3.25;3.25;;;;;24.05;57.72;101200.88;5037321;28;45477;-69
2023/08/15 07:29:43;;;;;;;;;5.75;3.50;;;;;24.06;57.56;101191.91;5031901;28;45790;-71
2023/08/15 07:32:38;;;;;;;;;3.75;3.75;;;;;24.06;57.30;101191.91;5032367;28;45332;-70
2023/08/15 07:35:06;;;;;;;;;2.50;2.00;;;;;23.92;57.50;101157.78;5036752;28;45681;-71
2023/08/15 07:38:14;;;;;;;;;4.00;4.00;;;;;24.12;57.64;101209.50;5036592;28;45370;-71
2023/08/15 07:40:41;;;;;;;;;5.25;4.50;;;;;24.08;57.08;101182.03;5032093;28;45520;-69
2023/08/15 07:43:07;;;;;;;;;6.50;4.75;;;;;24.25;56.69;101188.34;5037529;28;45742;-70
2023/08/15 07:45:32;;;;;;;;;6.00;4.00;;;;;24.41;56.73;101207.22;5037410;28;46625;-70
2023/08/15 07:47:58;;;;;;;;;3.00;3.00;;;;;24.46;56.77;101206.09;5037478;28;45617;-68
2023/08/15 07:50:26;;;;;;;;;5.00;5.00;;;;;24.50;56.76;101206.81;5035008;28;45460;-70
2023/08/15 07:53:02;;;;;;;;;4.25;4.00;;;;;24.47;56.21;101183.75;5037008;28;45288;-71
2023/08/15 07:55:30;;;;;;;;;3.50;2.50;;;;;24.60;56.83;101194.69;5035679;28;46274;-69
2023/08/15 07:58:01;;;;;;;;;3.00;3.00;;;;;24.57;56.63;101175.25;5035041;28;45571;-69
2023/08/15 08:00:31;;;;;;;;;3.00;3.00;;;;;24.81;56.01;101211.53;5035802;28;45430;-70
2023/08/15 08:02:59;;;;;;;;;5.00;3.25;;;;;24.90;56.06;101199.47;5035819;28;45527;-71
2023/08/15 08:05:25;;;;;;;;;3.00;3.00;;;;;24.65;55.73;101140.91;5035338;28;45541;-72
2023/08/15 08:07:51;;;;;;;;;5.50;3.50;;;;;25.02;55.53;101190.81;5035339;28;45486;-69
2023/08/15 08:10:17;;;;;;;;;3.25;3.25;;;;;25.01;55.00;101177.47;5035873;28;45342;-70
2023/08/15 08:12:42;;;;;;;;;4.50;3.00;;;;;25.13;55.74;101191.13;5036995;28;45476;-70
2023/08/15 08:15:08;;;;;;;;;5.25;3.25;;;;;25.16;55.41;101188.28;5036087;28;46539;-73
2023/08/15 08:17:34;;;;;;;;;5.00;4.00;;;;;25.22;54.66;101189.81;5035408;28;47125;-71
2023/08/15 08:20:00;;;;;;;;;3.25;3.00;;;;;24.89;55.14;101150.41;5036062;28;45515;-71
2023/08/15 08:22:29;;;;;;;;;3.50;3.50;;;;;24.95;55.64;101162.59;5029911;28;45449;-72
2023/08/15 08:24:55;;;;;;;;;4.50;4.00;;;;;24.62;55.39;101098.22;5036216;28;47274;-69
2023/08/15 08:27:21;;;;;;;;;5.25;3.50;;;;;25.22;55.21;101181.75;5036974;28;45929;-69
2023/08/15 08:29:46;;;;;;;;;4.00;4.00;;;;;25.27;54.89;101187.78;5038962;28;45260;-70
2023/08/15 08:32:13;;;;;;;;;6.50;4.00;;;;;25.15;55.09;101156.19;5039062;28;45500;-70
2023/08/15 08:34:38;;;;;;;;;3.25;3.00;;;;;25.08;55.08;101138.69;5050992;28;46270;-70
2023/08/15 08:37:04;;;;;;;;;3.50;3.50;;;;;25.41;54.77;101173.63;5033242;28;45650;-70
2023/08/15 08:39:34;;;;;;;;;3.50;3.00;;;;;25.37;54.22;101162.19;5054151;28;45531;-68
2023/08/15 08:42:00;;;;;;;;;4.50;3.75;;;;;25.38;54.07;101153.19;5039344;28;45468;-70
2023/08/15 08:44:28;;;;;;;;;4.00;4.00;;;;;25.54;53.82;101174.69;5037978;28;46234;-73
2023/08/15 08:46:54;;;;;;;;;6.25;3.25;;;;;25.59;53.28;101166.41;5038940;28;45473;-72
2023/08/15 08:49:22;;;;;;;;;6.00;4.75;;;;;25.65;53.21;101173.25;5039564;28;45446;-72
2023/08/15 08:51:48;;;;;;;;;5.50;3.75;;;;;25.47;52.93;101161.72;5036447;28;45432;-72
2023/08/15 08:54:14;;;;;;;;;6.50;3.00;;;;;25.41;53.42;101132.53;5053613;28;46873;-71
2023/08/15 08:56:42;;;;;;;;;3.75;3.00;;;;;25.70;53.94;101168.50;5039271;28;45685;-68
2023/08/15 08:59:12;;;;;;;;;4.50;3.75;;;;;25.77;52.70;101173.47;5038797;28;45377;-69
2023/08/15 09:01:39;;;;;;;;;3.75;2.75;;;;;25.50;52.80;101145.44;5038573;28;45374;-71
2023/08/15 09:04:05;;;;;;;;;3.25;3.25;;;;;25.55;53.24;101146.06;5038724;28;46420;-73
2023/08/15 09:06:31;;;;;;;;;4.00;3.50;;;;;25.52;52.95;101139.06;5039952;28;45511;-70
2023/08/15 09:08:59;;;;;;;;;6.25;6.25;;;;;25.76;52.86;101181.59;5040619;28;45383;-73
2023/08/15 09:11:36;;;;;;;;;8.25;5.00;;;;;25.64;53.01;101160.81;5043015;28;45543;-74
2023/08/15 09:14:05;;;;;;;;;6.75;5.00;;;;;25.86;52.37;101176.56;5033544;28;45503;-75
2023/08/15 09:16:33;;;;;;;;;7.00;4.00;;;;;25.91;51.59;101183.47;5042216;28;45343;-74
2023/08/15 09:19:03;;;;;;;;;6.00;5.00;;;;;25.49;53.03;101139.22;5031269;28;45518;-73
2023/08/15 09:21:33;;;;;;;;;7.00;4.25;;;;;25.76;52.77;101186.94;5040133;28;45459;-75
2023/08/15 09:23:59;;;;;;;;;4.00;4.00;;;;;25.71;52.31;101178.28;5038534;28;46655;-73
2023/08/15 09:26:25;;;;;;;;;8.75;3.25;;;;;25.44;53.00;101141.28;5038477;28;45880;-73
2023/08/15 09:28:51;;;;;;;;;4.75;3.25;;;;;25.63;52.52;101180.50;5038635;28;45476;-74
2023/08/15 09:31:18;;;;;;;;;3.00;3.00;;;;;25.70;52.37;101188.16;5039029;28;45401;-73
2023/08/15 09:33:44;;;;;;;;;9.50;6.50;;;;;25.38;51.94;101139.78;5037432;28;45557;-73
2023/08/15 09:36:10;;;;;;;;;6.25;4.00;;;;;25.79;51.40;101198.41;5038761;28;45223;-73
2023/08/15 09:38:37;;;;;;;;;6.00;4.25;;;;;25.83;51.83;101185.66;5053185;28;45522;-73
2023/08/15 09:41:05;;;;;;;;;5.25;5.00;;;;;25.52;52.75;101131.00;5037667;28;45403;-73
2023/08/15 09:43:32;;;;;;;;;5.00;4.00;;;;;25.67;52.06;101147.22;5037482;28;46036;-72
2023/08/15 09:45:59;;;;;;;;;8.25;4.75;;;;;25.94;51.92;101166.34;5038476;28;45583;-73
2023/08/15 09:48:26;;;;;;;;;4.50;4.50;;;;;25.99;52.37;101180.38;5039088;28;45507;-69
2023/08/15 09:51:02;;;;;;;;;4.50;4.00;;;;;25.94;52.42;101161.84;5037830;28;45435;-72
2023/08/15 09:53:28;;;;;;;;;6.00;4.50;;;;;25.90;51.36;101148.66;5037693;28;45367;-72
2023/08/15 09:55:54;;;;;;;;;8.25;5.25;;;;;26.25;51.40;101181.59;5036564;28;45379;-71
2023/08/15 09:58:20;;;;;;;;;4.75;4.75;;;;;25.96;51.72;101126.84;5038038;28;45354;-73
2023/08/15 10:00:51;;;;;;;;;3.25;3.25;;;;;26.23;52.01;101184.34;5054987;28;45743;-70
2023/08/15 10:03:24;;;;;;;;;4.25;4.25;;;;;25.89;51.65;101129.03;5038975;28;45483;-71
2023/08/15 10:05:56;;;;;;;;;3.25;3.25;;;;;26.27;51.16;101178.78;5038729;28;45474;-71
2023/08/15 10:08:23;;;;;;;;;5.50;4.00;;;;;26.35;51.28;101184.59;5037878;28;45455;-71
2023/08/15 10:10:50;;;;;;;;;3.75;3.50;;;;;26.17;51.06;101148.91;5037003;28;45489;-69
2023/08/15 10:13:19;;;;;;;;;4.00;4.00;;;;;26.25;50.90;101156.56;5036760;28;45307;-70
2023/08/15 10:15:46;;;;;;;;;3.25;3.00;;;;;26.16;51.23;101140.00;5035283;28;45421;-69
2023/08/15 10:18:12;;;;;;;;;3.75;3.75;;;;;26.33;50.76;101154.28;5037159;28;45422;-72
2023/08/15 10:20:39;;;;;;;;;5.50;5.50;;;;;26.49;50.38;101176.63;5035484;28;45495;-70
2023/08/15 10:23:08;;;;;;;;;5.00;4.00;;;;;26.48;49.86;101168.66;5035084;28;46486;-71
2023/08/15 10:25:39;;;;;;;;;4.75;2.00;;;;;26.61;49.96;101191.19;5036239;28;45484;-71
2023/08/15 10:28:11;;;;;;;;;6.50;6.50;;;;;26.54;50.34;101185.31;5036521;28;45500;-71
2023/08/15 10:30:41;;;;;;;;;4.75;3.00;;;;;26.58;50.69;101184.19;5034990;28;45451;-70
2023/08/15 10:33:16;;;;;;;;;4.00;3.00;;;;;26.66;50.13;101183.72;5032938;28;45402;-70
2023/08/15 10:35:49;;;;;;;;;5.50;3.75;;;;;26.72;49.70;101191.44;5036422;28;45383;-70
2023/08/15 10:38:22;;;;;;;;;4.00;4.00;;;;;26.82;49.75;101189.09;5033346;28;45525;-71
2023/08/15 10:40:50;;;;;;;;;5.25;4.00;;;;;26.72;49.46;101177.13;5037633;28;45472;-70
2023/08/15 10:43:16;;;;;;;;;4.25;4.25;;;;;26.82;48.93;101191.78;5036954;28;46339;-71
2023/08/15 10:46:04;;;;;;;;;4.00;4.00;;;;;26.78;49.54;101168.72;5036436;28;45567;-68
2023/08/15 10:48:43;;;;;;;;;3.00;3.00;;;;;26.90;49.15;101177.88;5037140;28;45509;-72
2023/08/15 10:51:22;;;;;;;;;5.00;3.75;;;;;27.01;49.23;101181.66;5034938;28;46067;-71
2023/08/15 10:53:49;;;;;;;;;4.75;3.50;;;;;26.81;49.00;101163.16;5033877;28;47410;-72
2023/08/15 10:56:20;;;;;;;;;7.20;3.40;;;;;26.99;48.87;101186.25;5036431;28;45485;-71
2023/08/15 10:58:49;;;;;;;;;4.25;4.00;;;;;27.32;48.43;101195.97;5034090;28;45526;-71
2023/08/15 11:01:17;;;;;;;;;4.00;4.00;;;;;27.53;47.77;101193.78;5035640;28;45547;-70
2023/08/15 11:03:43;;;;;;;;;5.00;3.50;;;;;27.66;47.27;101193.88;5035416;28;45772;-71
2023/08/15 11:06:11;;;;;;;;;2.40;2.40;;;;;27.79;46.76;101186.75;5035434;28;45311;-71
2023/08/15 11:08:41;;;;;;;;;4.50;2.25;;;;;27.76;46.75;101196.84;5035566;28;45612;-72
2023/08/15 11:11:08;;;;;;;;;5.50;4.25;;;;;27.60;46.32;101184.38;4984444;28;1480588;-71
2023/08/15 11:13:42;;;;;;;;;2.50;2.25;;;;;27.64;46.48;101198.47;5036685;28;46352;-72
2023/08/15 11:16:08;;;;;;;;;3.75;3.75;;;;;27.45;46.73;101194.25;5053599;28;45443;-72
2023/08/15 11:18:35;;;;;;;;;98.75;95.75;;;;;27.39;46.96;101202.69;5038516;28;45474;-72
2023/08/15 11:21:02;;;;;;;;;52.33;42.00;;;;;27.13;47.31;101204.25;5038415;28;45564;-72
2023/08/15 11:23:32;;;;;;;;;60.33;46.33;;;;;26.94;48.90;101203.63;5036614;28;45403;-71
2023/08/15 11:26:14;;;;;;;;;55.67;45.33;;;;;26.80;49.09;101207.97;5036246;28;45409;-70
2023/08/15 11:28:40;;;;;;;;;58.75;46.50;;;;;26.71;49.49;101213.03;5036674;28;45519;-71